createdAt,value
2018-11-22T00:02:39.183Z,17.17
2018-11-22T00:05:17.533Z,15.80
2018-11-22T00:07:58.958Z,16.53
2018-11-22T00:10:46.116Z,15.97
2018-11-22T00:13:26.716Z,16.13
2018-11-22T00:16:13.845Z,16.67
2018-11-22T00:19:04.664Z,16.83
2018-11-22T00:21:52.159Z,16.07
2018-11-22T00:24:32.624Z,16.37
2018-11-22T00:27:19.778Z,15.83
2018-11-22T00:30:00.609Z,15.93
2018-11-22T00:32:47.784Z,15.83
2018-11-22T00:35:28.094Z,15.57
2018-11-22T00:38:15.226Z,16.03
2018-11-22T00:40:55.429Z,16.40
2018-11-22T00:43:42.521Z,15.73
2018-11-22T00:46:23.017Z,15.83
2018-11-22T00:49:10.191Z,15.53
2018-11-22T00:51:37.870Z,15.70
2018-11-22T00:54:25.078Z,14.83
2018-11-22T00:57:12.263Z,15.30
2018-11-22T00:59:52.681Z,15.97
2018-11-22T01:02:32.669Z,15.67
2018-11-22T01:05:20.877Z,15.90
2018-11-22T01:08:01.396Z,15.40
2018-11-22T01:10:48.556Z,16.50
2018-11-22T01:13:29.074Z,14.43
2018-11-22T01:16:16.292Z,14.47
2018-11-22T01:19:03.957Z,14.60
2018-11-22T01:21:43.962Z,15.03
2018-11-22T01:24:31.155Z,15.03
2018-11-22T01:27:11.474Z,15.23
2018-11-22T01:29:58.644Z,15.13
2018-11-22T01:32:39.232Z,15.03
2018-11-22T01:35:20.453Z,16.00
2018-11-22T01:38:07.660Z,15.47
2018-11-22T01:40:47.621Z,15.40
2018-11-22T01:43:34.811Z,14.53
2018-11-22T01:46:15.368Z,14.50
2018-11-22T01:49:02.930Z,14.20
2018-11-22T01:51:50.148Z,15.07
2018-11-22T01:54:30.819Z,13.83
2018-11-22T01:57:18.015Z,14.10
2018-11-22T02:00:27.058Z,14.27
2018-11-22T02:03:14.210Z,13.77
2018-11-22T02:05:55.280Z,13.87
2018-11-22T02:08:42.487Z,14.40
2018-11-22T02:11:22.601Z,13.20
2018-11-22T02:14:10.298Z,13.43
2018-11-22T02:16:52.041Z,13.80
2018-11-22T02:19:39.245Z,13.80
2018-11-22T02:22:19.531Z,13.10
2018-11-22T02:25:07.507Z,13.63
2018-11-22T02:27:48.209Z,14.83
2018-11-22T02:30:35.377Z,13.13
2018-11-22T02:33:15.827Z,13.40
2018-11-22T02:36:02.971Z,13.47
2018-11-22T02:38:42.860Z,13.73
2018-11-22T02:41:29.990Z,13.23
2018-11-22T02:44:10.078Z,12.43
2018-11-22T02:46:57.455Z,13.83
2018-11-22T02:49:37.912Z,13.90
2018-11-22T02:52:25.124Z,14.00
2018-11-22T02:55:05.622Z,14.00
2018-11-22T02:57:52.797Z,13.47
2018-11-22T03:00:37.319Z,12.93
2018-11-22T03:03:24.439Z,13.50
2018-11-22T03:06:04.547Z,12.87
2018-11-22T03:08:51.751Z,13.67
2018-11-22T03:11:39.270Z,14.50
2018-11-22T03:14:19.588Z,13.87
2018-11-22T03:17:06.800Z,13.60
2018-11-22T03:19:46.950Z,14.80
2018-11-22T03:22:34.354Z,13.87
2018-11-22T03:25:17.392Z,13.97
2018-11-22T03:27:57.257Z,13.37
2018-11-22T03:30:44.436Z,13.33
2018-11-22T03:33:24.516Z,13.90
2018-11-22T03:36:11.662Z,13.67
2018-11-22T03:38:51.994Z,14.27
2018-11-22T03:41:39.133Z,13.93
2018-11-22T03:44:19.300Z,14.33
2018-11-22T03:46:46.976Z,13.47
2018-11-22T03:49:34.087Z,12.53
2018-11-22T03:52:14.579Z,13.23
2018-11-22T03:55:01.786Z,12.67
2018-11-22T03:57:42.532Z,13.20
2018-11-22T04:00:29.998Z,13.33
2018-11-22T04:03:10.620Z,13.33
2018-11-22T04:05:57.804Z,13.00
2018-11-22T04:08:37.973Z,12.70
2018-11-22T04:11:25.181Z,12.80
2018-11-22T04:14:05.243Z,13.83
2018-11-22T04:16:52.404Z,13.13
2018-11-22T04:19:32.470Z,13.03
2018-11-22T04:22:19.612Z,13.20
2018-11-22T04:24:59.871Z,13.60
2018-11-22T04:27:47.156Z,13.17
2018-11-22T04:30:31.190Z,13.20
2018-11-22T04:33:18.400Z,12.70
2018-11-22T04:35:58.891Z,13.50
2018-11-22T04:38:46.097Z,20.50
2018-11-22T04:41:26.000Z,21.53
2018-11-22T04:44:13.189Z,23.27
2018-11-22T04:46:53.234Z,16.27
2018-11-22T04:49:40.393Z,12.97
2018-11-22T04:52:27.521Z,13.93
2018-11-22T04:55:08.394Z,13.73
2018-11-22T04:57:58.031Z,14.33
2018-11-22T05:00:35.552Z,13.33
2018-11-22T05:03:22.718Z,14.87
2018-11-22T05:06:02.878Z,16.60
2018-11-22T05:08:50.073Z,16.47
2018-11-22T05:11:37.271Z,14.73
2018-11-22T05:14:24.423Z,14.90
2018-11-22T05:17:04.510Z,14.43
2018-11-22T05:19:51.720Z,15.40
2018-11-22T05:22:31.971Z,14.23
2018-11-22T05:25:19.156Z,13.97
2018-11-22T05:27:59.343Z,14.50
2018-11-22T05:30:46.801Z,17.83
2018-11-22T05:33:26.932Z,15.83
2018-11-22T05:36:14.105Z,14.70
2018-11-22T05:38:54.291Z,14.90
2018-11-22T05:41:43.835Z,14.83
2018-11-22T05:44:22.171Z,14.80
2018-11-22T05:47:09.317Z,14.30
2018-11-22T05:49:49.239Z,14.27
2018-11-22T05:52:36.419Z,14.27
2018-11-22T05:55:17.388Z,15.60
2018-11-22T05:58:29.887Z,16.20
2018-11-22T06:01:10.192Z,14.63
2018-11-22T06:03:57.359Z,14.33
2018-11-22T06:06:37.600Z,17.30
2018-11-22T06:09:24.768Z,15.33
2018-11-22T06:12:05.014Z,15.77
2018-11-22T06:14:52.185Z,15.53
2018-11-22T06:17:32.584Z,15.13
2018-11-22T06:20:21.137Z,15.33
2018-11-22T06:23:01.528Z,16.33
2018-11-22T06:25:49.588Z,15.57
2018-11-22T06:28:32.756Z,15.10
2018-11-22T06:31:42.678Z,15.33
2018-11-22T06:34:24.308Z,14.40
2018-11-22T06:37:10.410Z,15.20
2018-11-22T06:39:50.902Z,15.33
2018-11-22T06:42:38.592Z,17.07
2018-11-22T06:45:20.477Z,21.23
2018-11-22T06:48:07.655Z,15.97
2018-11-22T06:50:48.100Z,13.87
2018-11-22T06:53:35.542Z,15.50
2018-11-22T06:56:15.457Z,15.17
2018-11-22T07:01:48.861Z,14.27
2018-11-22T07:04:38.060Z,14.50
2018-11-22T07:07:17.998Z,13.70
2018-11-22T07:10:07.189Z,13.97
2018-11-22T07:12:47.758Z,14.37
2018-11-22T12:17:52.154Z,13.70
2018-11-22T12:20:20.961Z,13.30
2018-11-22T12:22:50.482Z,12.20
2018-11-22T12:25:20.041Z,13.07
2018-11-22T12:27:49.542Z,12.70
2018-11-22T12:30:19.879Z,13.00
2018-11-22T12:32:53.745Z,13.33
2018-11-22T12:35:27.905Z,12.57
2018-11-22T12:38:01.597Z,11.97
2018-11-22T12:40:29.853Z,11.87
2018-11-22T12:42:59.568Z,12.10
2018-11-22T12:45:52.949Z,12.20
2018-11-22T12:48:21.165Z,12.20
2018-11-22T12:50:49.294Z,11.23
2018-11-22T12:53:17.473Z,11.33
2018-11-22T12:55:45.868Z,11.93
2018-11-22T12:58:14.025Z,12.23
2018-11-22T13:00:42.232Z,11.73
2018-11-22T13:03:10.409Z,11.87
2018-11-22T13:05:38.805Z,11.83
2018-11-22T13:08:06.999Z,12.37
2018-11-22T13:10:35.182Z,12.23
2018-11-22T13:13:03.373Z,11.93
2018-11-22T13:15:31.547Z,12.60
2018-11-22T13:17:59.753Z,12.37
2018-11-22T13:20:27.908Z,11.37
2018-11-22T13:22:56.071Z,12.20
2018-11-22T13:25:24.568Z,11.73
2018-11-22T13:27:52.759Z,11.93
2018-11-22T13:30:23.189Z,11.27
2018-11-22T13:32:52.048Z,11.00
2018-11-22T13:35:52.938Z,13.53
2018-11-22T13:38:21.091Z,10.90
2018-11-22T13:40:49.311Z,11.03
2018-11-22T13:43:17.494Z,10.20
2018-11-22T13:46:05.415Z,10.60
2018-11-22T13:48:33.009Z,10.10
2018-11-22T13:51:01.197Z,10.10
2018-11-22T13:53:29.372Z,9.97
2018-11-22T13:55:57.543Z,9.80
2018-11-22T13:58:25.753Z,9.07
2018-11-22T14:00:53.873Z,11.47
2018-11-22T14:03:22.144Z,10.10
2018-11-22T14:05:50.438Z,16.97
2018-11-22T14:08:18.611Z,10.70
2018-11-22T14:10:47.920Z,9.23
2018-11-22T14:13:16.014Z,10.17
2018-11-22T14:15:44.349Z,9.63
2018-11-22T14:18:12.600Z,10.30
2018-11-22T14:20:40.788Z,10.47
2018-11-22T14:23:08.980Z,10.77
2018-11-22T14:25:37.224Z,10.80
2018-11-22T14:28:05.536Z,10.10
2018-11-22T14:30:34.788Z,10.63
2018-11-22T14:33:02.965Z,10.47
2018-11-22T14:35:31.111Z,10.33
2018-11-22T14:37:59.247Z,10.03
2018-11-22T14:40:28.785Z,9.47
2018-11-22T14:42:58.033Z,9.33
2018-11-22T14:45:40.272Z,9.90
2018-11-22T14:48:08.423Z,9.30
2018-11-22T14:50:43.094Z,10.30
2018-11-22T14:53:16.780Z,9.83
2018-11-22T14:55:45.139Z,10.53
2018-11-22T14:58:13.215Z,9.97
2018-11-22T15:00:41.430Z,9.57
2018-11-22T15:03:09.644Z,11.23
2018-11-22T15:06:01.132Z,10.20
2018-11-22T15:08:29.289Z,9.53
2018-11-22T15:10:57.426Z,11.50
2018-11-22T15:13:25.633Z,11.03
2018-11-22T15:15:53.763Z,10.03
2018-11-22T15:18:22.590Z,9.10
2018-11-22T15:20:50.859Z,9.93
2018-11-22T15:23:19.056Z,9.93
2018-11-22T15:25:47.239Z,9.87
2018-11-22T15:28:15.502Z,9.73
2018-11-22T15:30:43.738Z,10.10
2018-11-22T15:33:11.902Z,10.47
2018-11-22T15:35:42.802Z,16.90
2018-11-22T15:38:11.303Z,10.40
2018-11-22T15:40:40.212Z,10.57
2018-11-22T15:43:08.388Z,13.27
2018-11-22T15:45:36.632Z,12.50
2018-11-22T15:48:06.210Z,11.47
2018-11-22T15:50:34.297Z,10.80
2018-11-22T15:53:02.449Z,11.23
2018-11-22T15:55:30.690Z,11.60
2018-11-22T15:57:59.769Z,11.97
2018-11-22T16:00:29.418Z,13.13
2018-11-22T16:02:58.002Z,12.80
2018-11-22T16:05:27.025Z,11.77
2018-11-22T16:07:55.180Z,11.17
2018-11-22T16:10:26.956Z,11.57
2018-11-22T16:12:56.108Z,11.10
2018-11-22T16:15:32.115Z,10.90
2018-11-22T16:18:00.283Z,11.00
2018-11-22T16:20:28.442Z,9.87
2018-11-22T16:22:56.690Z,9.37
2018-11-22T16:25:25.476Z,10.00
2018-11-22T16:27:53.642Z,11.43
2018-11-22T16:30:23.322Z,10.63
2018-11-22T16:32:51.785Z,9.53
2018-11-22T16:35:20.805Z,10.77
2018-11-22T16:37:48.912Z,10.37
2018-11-22T16:40:21.491Z,12.17
2018-11-22T16:42:50.708Z,11.67
2018-11-22T16:45:24.337Z,11.40
2018-11-22T16:47:52.447Z,11.20
2018-11-22T16:50:23.052Z,10.80
2018-11-22T16:52:51.460Z,14.73
2018-11-22T16:55:20.299Z,10.20
2018-11-22T16:57:49.389Z,10.10
2018-11-22T17:00:21.692Z,12.20
2018-11-22T17:02:55.668Z,11.37
2018-11-22T17:05:29.309Z,11.43
2018-11-22T17:07:57.859Z,14.27
2018-11-22T17:10:27.200Z,12.83
2018-11-22T17:12:56.980Z,12.40
2018-11-22T17:15:27.556Z,11.70
2018-11-22T17:17:56.288Z,13.37
2018-11-22T17:20:25.181Z,13.40
2018-11-22T17:22:53.761Z,11.13
2018-11-22T17:25:23.252Z,11.83
2018-11-22T17:27:53.695Z,12.13
2018-11-22T17:30:23.838Z,12.37
2018-11-22T17:32:52.043Z,13.03
2018-11-22T17:35:24.256Z,13.13
2018-11-22T17:37:53.595Z,11.73
2018-11-22T17:40:23.207Z,14.83
2018-11-22T17:42:51.463Z,19.53
2018-11-22T17:45:21.556Z,21.00
2018-11-22T17:47:49.862Z,14.27
2018-11-22T17:50:18.273Z,13.13
2018-11-22T17:52:46.490Z,11.20
2018-11-22T17:55:18.857Z,12.47
2018-11-22T17:57:47.287Z,11.53
2018-11-22T18:00:23.187Z,12.37
2018-11-22T18:02:52.418Z,12.73
2018-11-22T18:05:43.974Z,14.63
2018-11-22T18:08:12.197Z,19.67
2018-11-22T18:10:44.089Z,15.87
2018-11-22T18:13:12.855Z,15.23
2018-11-22T18:15:49.392Z,15.33
2018-11-22T18:18:19.992Z,14.10
2018-11-22T18:20:48.208Z,13.87
2018-11-22T18:23:16.358Z,14.73
2018-11-22T18:25:48.844Z,13.87
2018-11-22T18:28:12.942Z,14.17
2018-11-22T18:30:41.067Z,13.23
2018-11-22T18:33:09.366Z,14.87
2018-11-22T18:35:42.594Z,14.13
2018-11-22T18:38:10.768Z,12.77
2018-11-22T18:40:40.498Z,13.30
2018-11-22T18:43:08.683Z,12.83
2018-11-22T18:45:43.301Z,13.80
2018-11-22T18:48:13.053Z,13.00
2018-11-22T18:50:41.579Z,13.30
2018-11-22T18:53:09.919Z,12.67
2018-11-22T18:55:38.052Z,13.07
2018-11-22T18:58:06.701Z,13.40
2018-11-22T19:00:36.893Z,13.00
2018-11-22T19:03:09.242Z,12.67
2018-11-22T19:05:37.558Z,12.57
2018-11-22T19:08:07.675Z,13.43
2018-11-22T19:10:37.428Z,13.53
2018-11-22T19:13:06.978Z,13.10
2018-11-22T19:15:39.493Z,14.03
2018-11-22T19:18:09.237Z,13.67
2018-11-22T19:20:38.811Z,13.27
2018-11-22T19:23:08.491Z,13.70
2018-11-22T19:28:36.881Z,11.77
2018-11-22T19:31:05.536Z,11.77
2018-11-22T19:33:33.700Z,11.43
2018-11-22T19:36:02.698Z,13.87
2018-11-22T19:38:30.849Z,13.27
2018-11-22T19:40:58.996Z,13.37
2018-11-22T19:43:27.172Z,15.23
2018-11-22T19:45:55.481Z,15.63
2018-11-22T19:48:23.643Z,17.00
2018-11-22T19:50:51.830Z,20.00
2018-11-22T19:53:20.379Z,15.87
2018-11-22T19:55:48.683Z,14.50
2018-11-22T19:58:17.498Z,15.97
2018-11-22T20:00:45.668Z,15.43
2018-11-22T20:03:13.831Z,14.90
2018-11-22T20:05:51.513Z,15.00
2018-11-22T20:08:19.891Z,15.17
2018-11-22T20:10:48.641Z,15.70
2018-11-22T20:13:16.806Z,15.10
2018-11-22T20:15:45.630Z,15.57
2018-11-22T20:18:13.846Z,15.07
2018-11-22T20:20:43.046Z,16.47
2018-11-22T20:23:10.304Z,16.67
2018-11-22T20:25:43.488Z,14.73
2018-11-22T20:28:11.719Z,14.60
2018-11-22T20:30:41.875Z,14.47
2018-11-22T20:33:10.318Z,13.60
2018-11-22T20:36:07.803Z,16.30
2018-11-22T20:38:35.946Z,14.90
2018-11-22T20:41:11.129Z,13.40
2018-11-22T20:43:39.522Z,13.07
2018-11-22T20:46:12.832Z,13.50
2018-11-22T20:48:41.032Z,13.37
2018-11-22T20:51:09.177Z,18.57
2018-11-22T20:53:37.430Z,15.63
2018-11-22T20:56:05.774Z,14.90
2018-11-22T20:58:34.066Z,14.27
2018-11-22T21:01:02.269Z,13.43
2018-11-22T21:03:30.476Z,13.50
2018-11-22T21:05:59.921Z,13.13
2018-11-22T21:08:28.111Z,12.63
2018-11-22T21:10:56.891Z,13.87
2018-11-22T21:13:25.101Z,12.83
2018-11-22T21:15:53.375Z,14.50
2018-11-22T21:18:21.508Z,14.80
2018-11-22T21:20:49.661Z,14.83
2018-11-22T21:23:18.129Z,15.17
2018-11-22T21:25:55.860Z,14.87
2018-11-22T21:28:24.053Z,13.90
2018-11-22T21:30:52.338Z,16.43
2018-11-22T21:33:20.539Z,16.40
2018-11-22T21:35:48.739Z,15.53
2018-11-22T21:38:16.880Z,16.17
2018-11-22T21:40:45.059Z,16.57
2018-11-22T21:43:13.258Z,15.17
2018-11-22T21:45:41.707Z,15.73
2018-11-22T21:48:09.864Z,16.37
2018-11-22T21:50:37.979Z,16.67
2018-11-22T21:53:06.227Z,15.67
2018-11-22T21:55:35.471Z,15.47
2018-11-22T21:58:04.699Z,16.63
2018-11-22T22:00:41.837Z,14.87
2018-11-22T22:03:11.400Z,14.77
2018-11-22T22:05:40.099Z,16.07
2018-11-22T22:08:08.390Z,15.03
2018-11-22T22:10:36.585Z,14.97
2018-11-22T22:13:05.211Z,15.50
2018-11-22T22:15:34.453Z,16.10
2018-11-22T22:18:02.713Z,15.23
2018-11-22T22:20:32.280Z,16.33
2018-11-22T22:23:02.050Z,16.67
2018-11-22T22:25:30.397Z,16.00
2018-11-22T22:27:58.971Z,17.27
2018-11-22T22:30:31.955Z,17.30
2018-11-22T22:33:01.835Z,16.57
2018-11-22T22:35:38.010Z,15.97
2018-11-22T22:38:06.257Z,16.87
2018-11-22T22:40:34.335Z,17.90
2018-11-22T22:43:02.847Z,19.67
2018-11-22T22:45:32.172Z,16.60
2018-11-22T22:48:00.327Z,16.03
2018-11-22T22:50:29.288Z,15.00
2018-11-22T22:52:58.744Z,16.57
2018-11-22T22:55:56.427Z,13.63
2018-11-22T22:58:24.659Z,14.03
2018-11-22T23:00:53.486Z,13.57
2018-11-22T23:03:21.651Z,13.53
2018-11-22T23:05:49.947Z,14.58
2018-11-22T23:08:18.077Z,14.05
2018-11-22T23:10:46.871Z,14.10
2018-11-22T23:13:15.057Z,14.23
2018-11-22T23:15:43.499Z,13.40
2018-11-22T23:18:11.693Z,16.50
2018-11-22T23:20:39.858Z,15.57
2018-11-22T23:23:08.050Z,15.47
2018-11-22T23:25:36.188Z,14.78
2018-11-22T23:28:04.426Z,15.48
2018-11-22T23:30:33.675Z,14.43
2018-11-22T23:33:03.213Z,17.10
2018-11-22T23:35:31.507Z,20.30
2018-11-22T23:37:59.693Z,19.53
2018-11-22T23:40:28.961Z,19.17
2018-11-22T23:42:57.157Z,14.40
2018-11-22T23:45:26.780Z,16.17
2018-11-22T23:47:54.961Z,16.62
2018-11-22T23:50:24.561Z,15.35
2018-11-22T23:52:53.920Z,14.20
2018-11-22T23:55:35.999Z,14.75
2018-11-22T23:58:04.147Z,13.90
